createdAt,value
2018-07-17T00:02:03.606Z,6.07
2018-07-17T00:04:30.861Z,7.83
2018-07-17T00:07:08.406Z,6.33
2018-07-17T00:09:35.709Z,6.27
2018-07-17T00:12:02.982Z,8.93
2018-07-17T00:14:30.235Z,6.80
2018-07-17T00:24:35.646Z,6.37
2018-07-17T00:27:02.908Z,7.07
2018-07-17T00:29:30.165Z,8.00
2018-07-17T00:31:57.447Z,7.83
2018-07-17T00:34:24.681Z,6.93
2018-07-17T00:36:51.928Z,6.17
2018-07-17T00:39:19.143Z,6.83
2018-07-17T00:41:46.402Z,6.30
2018-07-17T00:44:13.641Z,8.77
2018-07-17T00:46:40.906Z,7.03
2018-07-17T00:49:08.210Z,7.70
2018-07-17T00:51:35.457Z,6.47
2018-07-17T00:54:02.714Z,7.43
2018-07-17T00:56:29.970Z,6.87
2018-07-17T00:58:57.211Z,7.83
2018-07-17T01:01:30.137Z,6.37
2018-07-17T01:04:02.961Z,7.63
2018-07-17T01:06:35.898Z,7.37
2018-07-17T01:09:09.759Z,6.87
2018-07-17T01:11:42.785Z,6.80
2018-07-17T01:14:28.630Z,6.93
2018-07-17T01:16:55.945Z,7.67
2018-07-17T01:19:23.175Z,8.63
2018-07-17T01:21:50.502Z,5.97
2018-07-17T01:24:17.728Z,7.07
2018-07-17T01:26:45.006Z,7.50
2018-07-17T01:29:12.218Z,6.90
2018-07-17T01:31:39.616Z,7.57
2018-07-17T01:34:06.857Z,7.10
2018-07-17T01:36:34.216Z,7.50
2018-07-17T01:39:01.489Z,7.37
2018-07-17T01:41:28.777Z,8.03
2018-07-17T01:43:56.043Z,8.63
2018-07-17T01:46:23.283Z,6.97
2018-07-17T01:48:50.575Z,6.87
2018-07-17T01:51:17.919Z,7.13
2018-07-17T01:53:45.364Z,7.00
2018-07-17T01:56:12.591Z,6.27
2018-07-17T01:58:39.854Z,6.60
2018-07-17T02:01:07.304Z,7.43
2018-07-17T02:03:34.582Z,6.87
2018-07-17T02:06:01.846Z,6.83
2018-07-17T02:08:29.263Z,6.93
2018-07-17T02:10:56.504Z,8.23
2018-07-17T02:13:23.764Z,7.53
2018-07-17T02:16:11.470Z,8.87
2018-07-17T02:18:38.899Z,7.50
2018-07-17T02:21:06.441Z,6.93
2018-07-17T02:23:33.728Z,7.10
2018-07-17T02:26:01.039Z,7.00
2018-07-17T02:28:28.322Z,7.40
2018-07-17T02:30:55.604Z,7.87
2018-07-17T02:33:22.830Z,6.97
2018-07-17T02:35:50.099Z,7.20
2018-07-17T02:38:17.340Z,6.67
2018-07-17T02:40:44.570Z,7.97
2018-07-17T02:43:11.815Z,6.90
2018-07-17T02:45:39.079Z,7.63
2018-07-17T02:48:06.311Z,8.37
2018-07-17T02:50:33.592Z,6.53
2018-07-17T02:53:00.841Z,6.70
2018-07-17T02:55:28.141Z,6.03
2018-07-17T02:57:55.386Z,7.40
2018-07-17T03:00:22.724Z,7.57
2018-07-17T03:02:49.985Z,7.00
2018-07-17T03:05:17.330Z,8.20
2018-07-17T03:07:44.696Z,6.97
2018-07-17T03:10:12.101Z,7.13
2018-07-17T03:12:39.426Z,6.63
2018-07-17T03:15:06.774Z,7.27
2018-07-17T03:17:34.103Z,8.97
2018-07-17T03:20:03.333Z,6.70
2018-07-17T03:22:31.898Z,7.43
2018-07-17T03:25:00.412Z,7.53
2018-07-17T03:27:27.903Z,7.03
2018-07-17T03:29:55.201Z,6.67
2018-07-17T03:32:22.519Z,7.17
2018-07-17T03:34:49.838Z,7.00
2018-07-17T03:37:17.187Z,7.00
2018-07-17T03:39:45.078Z,6.90
2018-07-17T03:42:12.516Z,7.80
2018-07-17T03:44:39.844Z,6.00
2018-07-17T03:47:07.160Z,6.87
2018-07-17T03:49:34.467Z,5.60
2018-07-17T03:52:01.981Z,7.73
2018-07-17T03:54:29.313Z,6.13
2018-07-17T03:56:56.882Z,7.77
2018-07-17T03:59:24.318Z,6.33
2018-07-17T04:01:51.839Z,6.03
2018-07-17T04:04:19.236Z,9.07
2018-07-17T04:06:46.573Z,6.90
2018-07-17T04:09:14.479Z,6.77
2018-07-17T04:11:41.821Z,11.67
2018-07-17T04:14:09.186Z,6.27
2018-07-17T04:16:41.073Z,6.87
2018-07-17T04:19:08.642Z,6.80
2018-07-17T04:21:35.978Z,6.70
2018-07-17T04:24:03.411Z,6.80
2018-07-17T04:26:30.787Z,5.67
2018-07-17T04:28:58.142Z,6.23
2018-07-17T04:31:25.414Z,6.10
2018-07-17T04:33:52.816Z,6.23
2018-07-17T04:36:20.163Z,6.10
2018-07-17T04:38:47.565Z,6.90
2018-07-17T04:41:14.903Z,5.43
2018-07-17T04:43:42.248Z,9.37
2018-07-17T04:46:09.593Z,7.00
2018-07-17T04:48:37.766Z,5.97
2018-07-17T04:51:05.346Z,7.23
2018-07-17T04:53:32.651Z,6.53
2018-07-17T04:56:00.041Z,5.57
2018-07-17T04:58:27.332Z,5.30
2018-07-17T05:00:54.703Z,6.73
2018-07-17T05:03:21.999Z,5.60
2018-07-17T05:05:49.368Z,6.40
2018-07-17T05:08:16.811Z,5.40
2018-07-17T05:10:44.158Z,6.07
2018-07-17T05:13:11.508Z,4.70
2018-07-17T05:15:38.817Z,5.80
2018-07-17T05:18:06.123Z,5.60
2018-07-17T05:20:33.501Z,5.23
2018-07-17T05:23:00.854Z,4.93
2018-07-17T05:25:28.270Z,7.17
2018-07-17T05:27:56.424Z,4.57
2018-07-17T05:30:23.859Z,5.10
2018-07-17T05:32:51.177Z,5.37
2018-07-17T05:35:18.561Z,6.93
2018-07-17T05:37:45.908Z,6.23
2018-07-17T05:40:13.260Z,5.77
2018-07-17T05:42:40.696Z,5.20
2018-07-17T05:45:08.060Z,5.53
2018-07-17T05:47:39.937Z,4.73
2018-07-17T05:50:07.463Z,4.57
2018-07-17T05:52:35.885Z,5.70
2018-07-17T05:55:03.521Z,4.47
2018-07-17T05:57:31.132Z,5.10
2018-07-17T05:59:58.571Z,4.23
2018-07-17T06:02:25.854Z,5.00
2018-07-17T06:04:53.206Z,5.90
2018-07-17T06:07:20.561Z,4.33
2018-07-17T06:09:47.899Z,3.87
2018-07-17T06:12:15.298Z,4.10
2018-07-17T06:14:42.604Z,3.87
2018-07-17T06:17:10.243Z,4.10
2018-07-17T06:19:37.542Z,3.50
2018-07-17T06:22:04.958Z,4.55
2018-07-17T06:24:32.307Z,5.10
2018-07-17T06:26:59.618Z,5.70
2018-07-17T06:29:26.943Z,6.72
2018-07-17T06:31:54.214Z,3.85
2018-07-17T06:34:21.532Z,3.95
2018-07-17T06:36:48.866Z,4.58
2018-07-17T06:39:16.669Z,4.00
2018-07-17T06:41:44.019Z,3.83
2018-07-17T06:44:11.325Z,4.80
2018-07-17T06:46:38.659Z,4.62
2018-07-17T06:49:05.987Z,4.92
2018-07-17T06:51:33.334Z,4.58
2018-07-17T06:54:00.668Z,5.75
2018-07-17T06:56:27.998Z,5.10
2018-07-17T06:58:55.421Z,3.98
2018-07-17T07:01:22.709Z,3.65
2018-07-17T07:03:50.044Z,3.83
2018-07-17T07:06:17.323Z,4.35
2018-07-17T07:08:44.635Z,3.98
2018-07-17T07:11:12.588Z,3.42
2018-07-17T07:13:40.015Z,4.90
2018-07-17T07:16:08.307Z,3.77
2018-07-17T07:18:35.622Z,4.53
2018-07-17T07:21:02.968Z,3.67
2018-07-17T07:23:30.226Z,3.42
2018-07-17T07:25:57.641Z,3.35
2018-07-17T07:28:24.972Z,3.15
2018-07-17T07:30:52.324Z,3.08
2018-07-17T07:33:20.094Z,3.75
2018-07-17T07:35:47.551Z,4.33
2018-07-17T07:38:14.979Z,2.60
2018-07-17T07:40:42.392Z,3.50
2018-07-17T07:43:10.028Z,3.72
2018-07-17T07:45:37.371Z,3.95
2018-07-17T07:48:04.911Z,3.62
2018-07-17T07:50:32.334Z,3.60
2018-07-17T07:52:59.622Z,5.40
2018-07-17T07:55:27.211Z,4.37
2018-07-17T07:57:54.533Z,4.65
2018-07-17T08:00:21.835Z,4.55
2018-07-17T08:02:49.153Z,4.28
2018-07-17T08:05:16.549Z,3.20
2018-07-17T08:07:43.967Z,2.80
2018-07-17T08:10:11.333Z,2.85
2018-07-17T08:12:38.803Z,2.67
2018-07-17T08:15:06.200Z,2.92
2018-07-17T08:17:33.579Z,3.27
2018-07-17T08:20:00.877Z,3.72
2018-07-17T08:22:28.886Z,3.33
2018-07-17T08:24:56.277Z,3.20
2018-07-17T08:27:23.675Z,3.00
2018-07-17T08:29:51.078Z,2.60
2018-07-17T08:32:18.438Z,2.83
2018-07-17T08:34:45.730Z,4.33
2018-07-17T08:37:16.666Z,3.20
2018-07-17T08:39:43.986Z,4.33
2018-07-17T08:42:11.493Z,3.80
2018-07-17T08:44:38.781Z,4.90
2018-07-17T08:47:06.151Z,3.65
2018-07-17T08:49:33.543Z,2.47
2018-07-17T08:52:00.843Z,3.30
2018-07-17T08:54:28.247Z,2.12
2018-07-17T08:56:55.513Z,3.08
2018-07-17T08:59:22.900Z,2.80
2018-07-17T09:01:50.375Z,3.60
2018-07-17T09:04:17.927Z,2.92
2018-07-17T09:06:45.209Z,4.22
2018-07-17T09:09:12.583Z,3.08
2018-07-17T09:11:40.449Z,3.42
2018-07-17T09:14:07.833Z,2.83
2018-07-17T09:16:35.148Z,2.85
2018-07-17T09:19:02.565Z,4.05
2018-07-17T09:21:29.857Z,4.60
2018-07-17T09:23:57.191Z,2.90
2018-07-17T09:26:24.517Z,3.62
2018-07-17T09:28:51.852Z,5.60
2018-07-17T09:31:19.215Z,4.53
2018-07-17T09:33:46.553Z,4.25
2018-07-17T09:36:13.878Z,3.33
2018-07-17T09:38:41.216Z,3.67
2018-07-17T09:41:08.680Z,6.85
2018-07-17T09:43:36.052Z,6.35
2018-07-17T09:46:03.453Z,3.02
2018-07-17T09:48:30.745Z,3.35
2018-07-17T09:50:59.059Z,3.42
2018-07-17T09:53:26.578Z,3.20
2018-07-17T09:55:53.887Z,3.30
2018-07-17T09:58:22.271Z,7.20
2018-07-17T10:00:55.292Z,9.75
2018-07-17T10:03:23.166Z,3.70
2018-07-17T10:05:50.464Z,3.10
2018-07-17T10:08:17.895Z,4.55
2018-07-17T10:10:45.250Z,2.70
2018-07-17T10:13:12.557Z,3.00
2018-07-17T10:15:39.878Z,2.60
2018-07-17T10:18:07.246Z,4.78
2018-07-17T10:20:34.552Z,2.72
2018-07-17T10:23:01.919Z,2.27
2018-07-17T10:25:29.283Z,2.75
2018-07-17T10:27:56.558Z,5.37
2018-07-17T10:30:23.900Z,6.60
2018-07-17T10:32:51.230Z,2.75
2018-07-17T10:35:18.579Z,2.65
2018-07-17T10:37:45.972Z,2.50
2018-07-17T10:40:13.450Z,2.50
2018-07-17T10:42:41.738Z,2.87
2018-07-17T10:45:09.118Z,3.72
2018-07-17T10:47:36.548Z,2.50
2018-07-17T10:50:03.922Z,5.75
2018-07-17T10:52:31.505Z,4.05
2018-07-17T10:54:59.030Z,2.85
2018-07-17T10:57:26.392Z,2.55
2018-07-17T10:59:53.735Z,2.35
2018-07-17T11:02:21.138Z,3.87
2018-07-17T11:04:48.581Z,2.30
2018-07-17T11:07:16.446Z,4.22
2018-07-17T11:09:43.760Z,2.40
2018-07-17T11:12:11.067Z,3.47
2018-07-17T11:14:38.518Z,2.30
2018-07-17T11:17:06.726Z,3.10
2018-07-17T11:19:34.008Z,4.53
2018-07-17T11:22:01.457Z,3.42
2018-07-17T11:24:28.766Z,3.30
2018-07-17T11:26:56.122Z,2.45
2018-07-17T11:29:24.240Z,4.60
2018-07-17T11:31:51.556Z,2.25
2018-07-17T11:34:18.971Z,7.92
2018-07-17T11:36:46.317Z,3.33
2018-07-17T11:39:13.649Z,3.60
2018-07-17T11:41:41.027Z,3.02
2018-07-17T11:44:08.403Z,3.60
2018-07-17T11:46:35.733Z,2.90
2018-07-17T11:49:03.120Z,2.52
2018-07-17T11:51:30.456Z,4.70
2018-07-17T11:53:57.814Z,3.10
2018-07-17T11:56:25.344Z,3.08
2018-07-17T11:58:52.737Z,5.47
2018-07-17T12:01:21.161Z,2.83
2018-07-17T12:03:48.494Z,2.50
2018-07-17T12:06:15.788Z,3.45
2018-07-17T12:08:43.113Z,3.20
2018-07-17T12:11:11.077Z,3.05
2018-07-17T12:13:38.450Z,2.05
2018-07-17T12:16:05.900Z,2.42
2018-07-17T12:18:33.242Z,2.00
2018-07-17T12:21:01.150Z,2.55
2018-07-17T12:23:28.519Z,2.25
2018-07-17T12:25:55.852Z,3.87
2018-07-17T12:28:23.204Z,6.42
2018-07-17T12:30:50.879Z,2.05
2018-07-17T12:33:18.147Z,1.77
2018-07-17T12:35:46.142Z,2.22
2018-07-17T12:38:13.446Z,2.40
2018-07-17T12:40:40.801Z,3.52
2018-07-17T12:43:08.099Z,2.08
2018-07-17T12:45:35.459Z,3.75
2018-07-17T12:48:02.855Z,1.70
2018-07-17T12:50:30.214Z,2.00
2018-07-17T12:52:58.519Z,3.37
2018-07-17T12:55:25.980Z,1.95
2018-07-17T12:57:54.926Z,3.12
2018-07-17T13:00:22.302Z,5.15
2018-07-17T13:02:50.047Z,2.20
2018-07-17T13:05:18.438Z,5.08
2018-07-17T13:08:02.059Z,2.05
2018-07-17T13:10:29.459Z,3.08
2018-07-17T13:12:56.899Z,5.28
2018-07-17T13:15:24.248Z,4.58
2018-07-17T13:17:51.612Z,4.87
2018-07-17T13:20:19.050Z,5.12
2018-07-17T13:22:46.390Z,3.72
2018-07-17T13:25:14.430Z,4.10
2018-07-17T13:27:41.758Z,3.05
2018-07-17T13:30:09.086Z,4.50
2018-07-17T13:32:36.694Z,7.90
2018-07-17T13:35:04.167Z,2.87
2018-07-17T13:37:31.766Z,6.40
2018-07-17T13:39:59.112Z,1.90
2018-07-17T13:42:26.450Z,3.35
2018-07-17T13:44:53.901Z,5.72
2018-07-17T13:47:21.180Z,2.42
2018-07-17T13:49:49.219Z,1.80
2018-07-17T13:52:16.593Z,3.25
2018-07-17T13:54:43.916Z,5.60
2018-07-17T13:57:11.248Z,1.85
2018-07-17T13:59:38.621Z,3.02
2018-07-17T14:02:06.811Z,5.17
2018-07-17T14:04:34.148Z,3.65
2018-07-17T14:07:01.662Z,3.25
2018-07-17T14:09:29.087Z,6.22
2018-07-17T14:11:56.411Z,1.60
2018-07-17T14:14:24.456Z,3.47
2018-07-17T14:16:52.066Z,3.52
2018-07-17T14:19:19.358Z,3.65
2018-07-17T14:21:46.674Z,2.77
2018-07-17T14:24:14.185Z,1.72
2018-07-17T14:26:41.487Z,5.15
2018-07-17T14:29:08.914Z,3.12
2018-07-17T14:31:36.414Z,3.27
2018-07-17T14:34:03.787Z,3.35
2018-07-17T14:36:31.118Z,3.83
2018-07-17T14:38:58.444Z,2.65
2018-07-17T14:41:26.211Z,3.75
2018-07-17T14:43:53.572Z,1.77
2018-07-17T14:46:20.922Z,1.92
2018-07-17T14:48:48.287Z,2.85
2018-07-17T14:51:15.639Z,4.80
2018-07-17T14:53:42.981Z,3.70
2018-07-17T14:56:10.512Z,3.33
2018-07-17T14:58:37.847Z,3.20
2018-07-17T15:01:05.910Z,4.00
2018-07-17T15:03:33.599Z,2.00
2018-07-17T15:06:01.123Z,2.02
2018-07-17T15:08:28.855Z,5.78
2018-07-17T15:10:57.304Z,2.90
2018-07-17T15:13:24.661Z,4.92
2018-07-17T15:15:52.087Z,4.95
2018-07-17T15:18:20.056Z,2.10
2018-07-17T15:20:47.381Z,1.85
2018-07-17T15:23:14.721Z,2.02
2018-07-17T15:25:42.103Z,2.10
2018-07-17T15:28:09.425Z,2.47
2018-07-17T15:30:36.854Z,3.17
2018-07-17T15:33:04.627Z,1.87
2018-07-17T15:35:33.672Z,3.10
2018-07-17T15:38:13.829Z,1.87
2018-07-17T15:40:41.269Z,2.35
2018-07-17T15:43:09.301Z,3.25
2018-07-17T15:45:36.766Z,3.55
2018-07-17T15:48:04.057Z,2.72
2018-07-17T15:50:32.654Z,1.65
2018-07-17T15:53:00.107Z,1.70
2018-07-17T15:55:27.424Z,2.02
2018-07-17T15:57:54.999Z,1.80
2018-07-17T16:00:22.352Z,1.82
2018-07-17T16:02:49.745Z,3.62
2018-07-17T16:05:17.574Z,1.82
2018-07-17T16:07:45.097Z,2.55
2018-07-17T16:10:12.443Z,2.05
2018-07-17T16:12:39.846Z,2.00
2018-07-17T16:15:07.334Z,4.45
2018-07-17T16:17:35.045Z,1.57
2018-07-17T16:20:03.344Z,2.37
2018-07-17T16:22:30.581Z,2.50
2018-07-17T16:24:57.984Z,2.20
2018-07-17T16:27:25.374Z,2.65
2018-07-17T16:29:52.749Z,4.00
2018-07-17T16:32:20.132Z,5.55
2018-07-17T16:34:47.449Z,3.15
2018-07-17T16:37:14.783Z,4.78
2018-07-17T16:39:42.210Z,4.90
2018-07-17T16:42:09.569Z,2.45
2018-07-17T16:44:37.089Z,1.98
2018-07-17T16:47:04.380Z,2.15
2018-07-17T16:49:31.718Z,2.85
2018-07-17T16:51:59.129Z,1.82
2018-07-17T16:54:26.460Z,3.65
2018-07-17T16:56:53.794Z,2.98
2018-07-17T16:59:21.209Z,2.92
2018-07-17T17:01:48.590Z,3.52
2018-07-17T17:04:15.938Z,2.30
2018-07-17T17:06:43.279Z,5.67
2018-07-17T17:09:11.568Z,4.80
2018-07-17T17:11:38.871Z,6.45
2018-07-17T17:14:06.265Z,3.22
2018-07-17T17:16:33.578Z,2.90
2018-07-17T17:19:00.941Z,3.72
2018-07-17T17:21:28.463Z,3.58
2018-07-17T17:23:55.853Z,3.15
2018-07-17T17:26:24.238Z,2.98
2018-07-17T17:28:51.551Z,2.52
2018-07-17T17:31:18.957Z,5.05
2018-07-17T17:33:46.288Z,4.83
2018-07-17T17:36:13.634Z,3.00
2018-07-17T17:38:40.980Z,5.33
2018-07-17T17:41:08.351Z,3.30
2018-07-17T17:43:35.710Z,3.67
2018-07-17T17:46:03.246Z,3.20
2018-07-17T17:48:30.572Z,2.40
2018-07-17T17:50:57.917Z,4.33
2018-07-17T17:53:26.425Z,3.22
2018-07-17T17:55:54.436Z,2.72
2018-07-17T17:58:21.720Z,2.47
2018-07-17T18:00:49.362Z,2.45
2018-07-17T18:03:16.917Z,4.03
2018-07-17T18:05:45.422Z,4.55
2018-07-17T18:08:12.867Z,2.45
2018-07-17T18:10:40.299Z,3.37
2018-07-17T18:13:08.120Z,3.67
2018-07-17T18:15:35.734Z,4.15
2018-07-17T18:18:03.838Z,2.52
2018-07-17T18:20:33.609Z,3.42
2018-07-17T18:23:01.268Z,6.40
2018-07-17T18:25:28.625Z,4.45
2018-07-17T18:27:56.022Z,3.17
2018-07-17T18:30:23.334Z,2.47
2018-07-17T18:32:51.042Z,3.87
2018-07-17T18:35:18.440Z,2.47
2018-07-17T18:37:46.526Z,2.92
2018-07-17T18:40:13.902Z,3.40
2018-07-17T18:42:42.095Z,3.92
2018-07-17T18:45:09.487Z,2.90
2018-07-17T18:47:39.264Z,3.35
2018-07-17T18:50:12.869Z,6.25
2018-07-17T18:52:34.484Z,5.10
2018-07-17T18:55:01.860Z,3.58
2018-07-17T18:57:29.287Z,3.15
2018-07-17T18:59:56.734Z,3.40
2018-07-17T19:02:24.231Z,3.10
2018-07-17T19:04:52.825Z,3.70
2018-07-17T19:07:20.232Z,3.15
2018-07-17T19:09:48.443Z,3.10
2018-07-17T19:12:16.295Z,4.45
2018-07-17T19:14:43.824Z,2.87
2018-07-17T19:17:11.394Z,3.47
2018-07-17T19:19:38.854Z,4.12
2018-07-17T19:22:06.788Z,4.50
2018-07-17T19:24:34.159Z,4.50
2018-07-17T19:27:02.985Z,5.30
2018-07-17T19:29:30.416Z,4.33
2018-07-17T19:31:58.913Z,2.83
2018-07-17T19:34:26.576Z,5.15
2018-07-17T19:36:54.768Z,5.35
2018-07-17T19:39:22.103Z,5.47
2018-07-17T19:41:49.421Z,10.20
2018-07-17T19:44:16.815Z,9.48
2018-07-17T19:46:44.111Z,7.47
2018-07-17T19:49:11.462Z,11.80
2018-07-17T19:51:38.789Z,12.73
2018-07-17T19:54:06.139Z,8.00
2018-07-17T19:56:33.562Z,9.83
2018-07-17T19:59:00.974Z,9.43
2018-07-17T20:01:28.309Z,5.22
2018-07-17T20:03:55.634Z,7.80
2018-07-17T20:06:23.055Z,7.17
2018-07-17T20:08:50.391Z,8.25
2018-07-17T20:11:17.850Z,7.67
2018-07-17T20:13:45.181Z,9.25
2018-07-17T20:16:12.486Z,9.50
2018-07-17T20:18:39.761Z,8.18
2018-07-17T20:21:07.075Z,9.85
2018-07-17T20:23:34.562Z,7.40
2018-07-17T20:26:01.994Z,5.55
2018-07-17T20:28:29.309Z,4.60
2018-07-17T20:30:56.821Z,3.20
2018-07-17T20:33:24.089Z,13.68
2018-07-17T20:35:51.325Z,8.95
2018-07-17T20:38:18.610Z,6.10
2018-07-17T20:40:45.906Z,7.72
2018-07-17T20:43:13.177Z,5.00
2018-07-17T20:45:40.413Z,9.20
2018-07-17T20:48:07.693Z,13.77
2018-07-17T20:50:34.915Z,21.23
2018-07-17T20:53:02.226Z,7.30
2018-07-17T20:55:29.459Z,8.58
2018-07-17T20:57:56.739Z,6.27
2018-07-17T21:00:23.992Z,10.67
2018-07-17T21:02:51.396Z,8.17
2018-07-17T21:05:18.661Z,6.50
2018-07-17T21:07:45.935Z,5.63
2018-07-17T21:10:13.178Z,5.87
2018-07-17T21:12:40.426Z,8.53
2018-07-17T21:15:07.707Z,5.90
2018-07-17T21:17:34.969Z,9.97
2018-07-17T21:20:02.228Z,6.03
2018-07-17T21:22:29.519Z,6.07
2018-07-17T21:24:56.763Z,4.57
2018-07-17T21:27:24.049Z,11.57
2018-07-17T21:29:51.311Z,9.50
2018-07-17T21:32:18.570Z,5.27
2018-07-17T21:34:45.809Z,6.50
2018-07-17T21:37:13.061Z,5.23
2018-07-17T21:39:40.318Z,8.83
2018-07-17T21:42:07.676Z,5.23
2018-07-17T21:44:34.944Z,14.73
2018-07-17T21:47:02.282Z,8.43
2018-07-17T21:49:29.561Z,7.00
2018-07-17T21:51:56.809Z,6.90
2018-07-17T21:54:24.259Z,4.20
2018-07-17T21:56:51.501Z,4.97
2018-07-17T21:59:19.129Z,6.87
2018-07-17T22:01:46.366Z,7.27
2018-07-17T22:04:13.625Z,5.53
2018-07-17T22:06:40.849Z,5.97
2018-07-17T22:09:10.130Z,7.40
2018-07-17T22:11:37.375Z,4.60
2018-07-17T22:14:04.747Z,9.20
2018-07-17T22:16:32.006Z,6.77
2018-07-17T22:18:59.244Z,6.03
2018-07-17T22:21:26.493Z,6.43
2018-07-17T22:23:53.726Z,5.80
2018-07-17T22:26:23.134Z,5.77
2018-07-17T22:28:50.374Z,9.63
2018-07-17T22:31:17.654Z,8.57
2018-07-17T22:33:44.855Z,4.03
2018-07-17T22:36:12.174Z,4.90
2018-07-17T22:38:39.398Z,5.63
2018-07-17T22:41:06.706Z,7.50
2018-07-17T22:43:33.949Z,6.07
2018-07-17T22:46:01.194Z,5.43
2018-07-17T22:48:28.406Z,10.17
2018-07-17T22:50:55.683Z,3.80
2018-07-17T22:53:23.008Z,7.00
2018-07-17T22:55:50.324Z,5.50
2018-07-17T22:58:17.574Z,5.00
2018-07-17T23:00:44.792Z,6.60
2018-07-17T23:03:12.109Z,4.30
2018-07-17T23:05:39.349Z,6.50
2018-07-17T23:08:06.687Z,5.90
2018-07-17T23:10:33.918Z,3.90
2018-07-17T23:13:01.200Z,6.67
2018-07-17T23:15:28.461Z,6.50
2018-07-17T23:17:55.730Z,5.40
2018-07-17T23:20:22.973Z,4.30
2018-07-17T23:22:54.235Z,4.03
2018-07-17T23:25:22.751Z,7.33
2018-07-17T23:27:49.957Z,7.00
2018-07-17T23:30:17.673Z,4.77
2018-07-17T23:32:45.100Z,4.60
2018-07-17T23:35:12.338Z,5.13
2018-07-17T23:37:39.558Z,8.43
2018-07-17T23:40:06.818Z,5.87
2018-07-17T23:42:34.658Z,5.00
2018-07-17T23:45:01.895Z,3.97
2018-07-17T23:47:29.183Z,5.57
2018-07-17T23:49:56.454Z,10.97
2018-07-17T23:52:23.665Z,6.30
2018-07-17T23:54:50.917Z,6.17
2018-07-17T23:57:18.115Z,3.50
2018-07-17T23:59:45.374Z,7.23
